createdAt,value
2023-01-19T00:02:19.040Z,97120.23
2023-01-19T00:05:21.196Z,97111.36
2023-01-19T00:08:23.095Z,97113.04
2023-01-19T00:11:11.592Z,97116.23
2023-01-19T00:14:20.085Z,97124.81
2023-01-19T00:17:28.739Z,97120.11
2023-01-19T00:20:37.049Z,97115.77
2023-01-19T00:23:45.854Z,97118.15
2023-01-19T00:26:55.320Z,97118.39
2023-01-19T00:30:04.291Z,97120.59
2023-01-19T00:33:13.283Z,97121.77
2023-01-19T00:36:22.306Z,97126.48
2023-01-19T00:39:13.948Z,97124.13
2023-01-19T00:42:22.973Z,97127.63
2023-01-19T00:45:32.876Z,97130.47
2023-01-19T00:48:42.134Z,97127.42
2023-01-19T00:51:33.500Z,97128.93
2023-01-19T00:54:41.773Z,97119.71
2023-01-19T00:57:50.925Z,97106.95
2023-01-19T01:01:02.905Z,97102.27
2023-01-19T01:04:12.509Z,97100.66
2023-01-19T01:07:21.008Z,97099.73
2023-01-19T01:10:36.052Z,97097.80
2023-01-19T01:13:44.295Z,97101.89
2023-01-19T01:16:53.843Z,97106.25
2023-01-19T01:20:02.521Z,97109.90
2023-01-19T01:23:11.332Z,97104.21
2023-01-19T01:26:19.570Z,97102.15
2023-01-19T01:29:17.869Z,97105.38
2023-01-19T01:32:18.924Z,97116.00
2023-01-19T01:35:28.338Z,97113.00
2023-01-19T01:38:37.069Z,97110.38
2023-01-19T01:41:38.517Z,97110.71
2023-01-19T01:44:44.450Z,97108.98
2023-01-19T01:48:03.101Z,97102.59
2023-01-19T01:51:08.864Z,97099.52
2023-01-19T01:54:27.429Z,97085.02
2023-01-19T01:57:36.526Z,97071.09
2023-01-19T02:00:33.728Z,97083.36
2023-01-19T02:03:35.194Z,97096.69
2023-01-19T02:06:43.842Z,97101.49
2023-01-19T02:09:44.847Z,97102.96
2023-01-19T02:12:52.272Z,97101.76
2023-01-19T02:16:00.530Z,97107.69
2023-01-19T02:19:03.620Z,97107.23
2023-01-19T02:22:10.334Z,97109.67
2023-01-19T02:25:19.178Z,97105.23
2023-01-19T02:28:27.887Z,97109.65
2023-01-19T02:31:36.300Z,97115.92
2023-01-19T02:34:45.486Z,97116.00
2023-01-19T02:37:54.703Z,97118.23
2023-01-19T02:41:03.052Z,97121.91
2023-01-19T02:44:10.245Z,97124.71
2023-01-19T02:47:19.006Z,97125.08
2023-01-19T02:50:49.450Z,97125.64
2023-01-19T02:54:02.356Z,97132.46
2023-01-19T02:57:08.852Z,97128.52
2023-01-19T03:00:23.050Z,97130.33
2023-01-19T03:03:24.761Z,97125.59
2023-01-19T03:06:42.301Z,97134.34
2023-01-19T03:10:09.182Z,97138.73
2023-01-19T03:13:17.633Z,97135.52
2023-01-19T03:16:25.775Z,97130.63
2023-01-19T03:19:43.136Z,97128.55
2023-01-19T03:22:51.434Z,97134.31
2023-01-19T03:26:00.372Z,97133.02
2023-01-19T03:29:09.385Z,97129.30
2023-01-19T03:32:11.962Z,97127.45
2023-01-19T03:35:20.811Z,97128.11
2023-01-19T03:38:29.166Z,97133.68
2023-01-19T03:41:41.172Z,97130.70
2023-01-19T03:44:50.717Z,97133.35
2023-01-19T03:47:52.182Z,97134.02
2023-01-19T03:51:00.480Z,97140.01
2023-01-19T03:54:09.532Z,97146.02
2023-01-19T03:57:17.848Z,97154.20
2023-01-19T04:00:26.516Z,97151.72
2023-01-19T04:03:34.682Z,97155.39
2023-01-19T04:06:29.315Z,97153.86
2023-01-19T04:09:37.488Z,97154.31
2023-01-19T04:12:36.356Z,97159.83
2023-01-19T04:15:44.945Z,97159.31
2023-01-19T04:18:54.503Z,97159.69
2023-01-19T04:21:54.999Z,97161.15
2023-01-19T04:24:49.234Z,97171.92
2023-01-19T04:27:58.384Z,97179.57
2023-01-19T04:31:07.298Z,97176.44
2023-01-19T04:34:15.951Z,97170.20
2023-01-19T04:37:24.733Z,97169.65
2023-01-19T04:40:33.086Z,97168.23
2023-01-19T04:43:41.243Z,97163.18
2023-01-19T04:46:49.409Z,97163.61
2023-01-19T04:49:45.324Z,97180.80
2023-01-19T04:52:53.620Z,97197.77
2023-01-19T04:56:02.498Z,97201.98
2023-01-19T04:59:11.731Z,97203.48
2023-01-19T05:02:20.461Z,97207.46
2023-01-19T05:05:27.322Z,97211.56
2023-01-19T05:08:36.370Z,97213.60
2023-01-19T05:11:45.019Z,97212.46
2023-01-19T05:14:53.580Z,97211.08
2023-01-19T05:18:03.201Z,97207.51
2023-01-19T05:21:10.206Z,97209.54
2023-01-19T05:24:18.545Z,97210.39
2023-01-19T05:27:17.139Z,97204.97
2023-01-19T05:30:26.186Z,97201.16
2023-01-19T05:33:35.197Z,97203.95
2023-01-19T05:36:43.631Z,97210.16
2023-01-19T05:39:53.265Z,97203.77
2023-01-19T05:43:02.161Z,97196.33
2023-01-19T05:46:11.078Z,97186.20
2023-01-19T05:49:19.352Z,97189.69
2023-01-19T05:52:30.299Z,97192.95
2023-01-19T05:55:38.573Z,97193.50
2023-01-19T05:58:47.950Z,97197.71
2023-01-19T06:01:57.335Z,97197.96
2023-01-19T06:04:55.984Z,97188.95
2023-01-19T06:08:04.519Z,97185.84
2023-01-19T06:11:13.918Z,97184.48
2023-01-19T06:14:22.811Z,97180.64
2023-01-19T06:17:31.484Z,97189.73
2023-01-19T06:20:40.546Z,97199.58
2023-01-19T06:23:49.858Z,97192.63
2023-01-19T06:26:59.142Z,97203.58
2023-01-19T06:29:58.578Z,97217.40
2023-01-19T06:33:07.400Z,97227.46
2023-01-19T06:36:16.316Z,97231.23
2023-01-19T06:39:25.367Z,97230.70
2023-01-19T06:42:33.537Z,97239.46
2023-01-19T06:45:43.741Z,97251.27
2023-01-19T06:48:35.858Z,97258.77
2023-01-19T06:51:44.459Z,97263.53
2023-01-19T06:54:54.067Z,97276.82
2023-01-19T06:58:05.061Z,97287.29
2023-01-19T07:01:14.175Z,97293.76
2023-01-19T07:04:23.051Z,97307.34
2023-01-19T07:07:32.210Z,97311.17
2023-01-19T07:11:25.749Z,97319.35
2023-01-19T07:14:08.779Z,97322.84
2023-01-19T07:17:17.065Z,97324.66
2023-01-19T07:20:26.036Z,97323.40
2023-01-19T07:23:35.646Z,97321.52
2023-01-19T07:26:43.818Z,97320.67
2023-01-19T07:29:52.425Z,97323.77
2023-01-19T07:33:01.224Z,97321.86
2023-01-19T07:36:09.704Z,97318.99
2023-01-19T07:39:21.882Z,97315.73
2023-01-19T07:42:30.923Z,97313.06
2023-01-19T07:45:39.549Z,97313.04
2023-01-19T07:48:49.685Z,97316.96
2023-01-19T07:51:59.059Z,97309.74
2023-01-19T07:55:08.193Z,97318.64
2023-01-19T07:58:16.874Z,97316.77
2023-01-19T08:01:25.745Z,97334.46
2023-01-19T08:04:34.630Z,97334.93
2023-01-19T08:07:43.986Z,97343.71
2023-01-19T08:10:53.616Z,97351.40
2023-01-19T08:14:01.834Z,97361.94
2023-01-19T08:17:09.991Z,97365.42
2023-01-19T08:20:19.245Z,97355.85
2023-01-19T08:23:27.378Z,97370.14
2023-01-19T08:26:39.563Z,97379.09
2023-01-19T08:29:48.466Z,97376.16
2023-01-19T08:32:57.580Z,97367.40
2023-01-19T08:35:59.668Z,97383.19
2023-01-19T08:39:00.666Z,97379.03
2023-01-19T08:42:09.814Z,97366.59
2023-01-19T08:45:18.243Z,97364.87
2023-01-19T08:48:27.252Z,97370.63
2023-01-19T08:51:35.711Z,97362.88
2023-01-19T08:54:44.743Z,97350.65
2023-01-19T08:57:53.660Z,97347.16
2023-01-19T09:00:59.773Z,97366.52
2023-01-19T09:04:08.245Z,97355.80
2023-01-19T09:07:17.397Z,97346.70
2023-01-19T09:10:26.476Z,97355.17
2023-01-19T09:13:35.487Z,97377.70
2023-01-19T09:16:04.468Z,97383.21
2023-01-19T09:18:56.313Z,97385.19
2023-01-19T09:22:05.292Z,97382.55
2023-01-19T09:24:56.882Z,97373.95
2023-01-19T09:28:05.553Z,97382.96
2023-01-19T09:31:15.042Z,97399.75
2023-01-19T09:34:23.670Z,97401.52
2023-01-19T09:37:32.981Z,97392.12
2023-01-19T09:40:34.212Z,97391.30
2023-01-19T09:43:22.631Z,97384.48
2023-01-19T09:46:37.634Z,97374.83
2023-01-19T09:49:54.883Z,97373.52
2023-01-19T09:53:03.183Z,97382.11
2023-01-19T09:55:58.027Z,97386.95
2023-01-19T09:58:41.010Z,97389.70
2023-01-19T10:01:53.451Z,97386.59
2023-01-19T10:05:05.174Z,97379.71
2023-01-19T10:08:35.738Z,97375.42
2023-01-19T10:11:53.107Z,97367.93
2023-01-19T10:15:06.209Z,97375.67
2023-01-19T10:18:30.519Z,97371.88
2023-01-19T10:21:42.560Z,97360.18
2023-01-19T10:24:58.196Z,97353.17
2023-01-19T10:28:00.680Z,97351.14
2023-01-19T10:30:53.144Z,97345.32
2023-01-19T10:34:01.667Z,97340.80
2023-01-19T10:37:14.840Z,97341.98
2023-01-19T10:40:31.935Z,97344.54
2023-01-19T10:43:56.644Z,97351.86
2023-01-19T10:47:25.669Z,97355.23
2023-01-19T10:50:18.682Z,97355.30
2023-01-19T10:53:27.327Z,97354.84
2023-01-19T10:56:54.730Z,97351.69
2023-01-19T11:00:04.749Z,97348.95
2023-01-19T11:03:13.959Z,97350.41
2023-01-19T11:06:35.365Z,97346.13
2023-01-19T11:09:50.463Z,97340.06
2023-01-19T11:12:57.598Z,97340.95
2023-01-19T11:16:13.242Z,97338.08
2023-01-19T11:19:21.519Z,97333.36
2023-01-19T11:22:36.091Z,97328.80
2023-01-19T11:25:45.837Z,97323.80
2023-01-19T11:28:58.743Z,97323.27
2023-01-19T11:32:08.046Z,97322.78
2023-01-19T11:35:16.238Z,97322.73
2023-01-19T11:38:25.745Z,97319.75
2023-01-19T11:41:46.655Z,97319.52
2023-01-19T11:45:07.383Z,97316.40
2023-01-19T11:48:24.868Z,97320.56
2023-01-19T11:51:35.948Z,97315.02
2023-01-19T11:54:42.367Z,97315.23
2023-01-19T11:57:31.586Z,97322.06
2023-01-19T12:00:43.098Z,97327.52
2023-01-19T12:03:57.731Z,97324.18
2023-01-19T12:07:07.824Z,97324.13
2023-01-19T12:10:17.474Z,97323.98
2023-01-19T12:13:25.373Z,97319.30
2023-01-19T12:16:39.957Z,97323.79
2023-01-19T12:19:54.587Z,97322.00
2023-01-19T12:23:04.252Z,97319.17
2023-01-19T12:26:01.772Z,97320.05
2023-01-19T12:28:57.554Z,97323.42
2023-01-19T12:32:05.738Z,97325.30
2023-01-19T12:35:20.433Z,97328.00
2023-01-19T12:38:27.906Z,97324.84
2023-01-19T12:41:55.910Z,97322.27
2023-01-19T12:44:58.752Z,97327.02
2023-01-19T12:47:56.483Z,97328.46
2023-01-19T12:50:56.938Z,97329.65
2023-01-19T12:54:06.021Z,97330.72
2023-01-19T12:57:15.098Z,97332.75
2023-01-19T13:00:42.285Z,97334.30
2023-01-19T13:04:02.560Z,97333.75
2023-01-19T13:07:29.201Z,97336.77
2023-01-19T13:10:36.600Z,97337.66
2023-01-19T13:13:57.245Z,97341.13
2023-01-19T13:17:02.251Z,97347.21
2023-01-19T13:20:25.699Z,97350.08
2023-01-19T13:23:40.387Z,97350.58
2023-01-19T13:26:53.008Z,97350.56
2023-01-19T13:30:12.393Z,97354.63
2023-01-19T13:33:22.384Z,97361.85
2023-01-19T13:36:41.180Z,97366.55
2023-01-19T13:39:56.488Z,97372.30
2023-01-19T13:43:04.969Z,97374.36
2023-01-19T13:46:16.806Z,97379.44
2023-01-19T13:49:47.087Z,97376.09
2023-01-19T13:52:56.161Z,97380.50
2023-01-19T13:56:08.269Z,97386.15
2023-01-19T13:59:19.710Z,97391.89
2023-01-19T14:02:28.401Z,97396.48
2023-01-19T14:05:37.427Z,97403.08
2023-01-19T14:08:48.802Z,97402.73
2023-01-19T14:11:42.816Z,97409.46
2023-01-19T14:15:04.372Z,97410.11
2023-01-19T14:18:10.581Z,97408.77
2023-01-19T14:21:26.057Z,97409.61
2023-01-19T14:24:41.789Z,97414.16
2023-01-19T14:27:51.023Z,97418.36
2023-01-19T14:30:44.133Z,97420.05
2023-01-19T14:33:56.388Z,97420.89
2023-01-19T14:37:14.541Z,97420.23
2023-01-19T14:40:28.913Z,97420.73
2023-01-19T14:43:30.579Z,97425.10
2023-01-19T14:46:39.720Z,97426.67
2023-01-19T14:49:49.839Z,97425.20
2023-01-19T14:53:10.967Z,97422.73
2023-01-19T14:56:19.673Z,97422.30
2023-01-19T14:59:12.264Z,97427.56
2023-01-19T15:02:20.539Z,97428.60
2023-01-19T15:05:29.644Z,97427.13
2023-01-19T15:08:38.312Z,97432.00
2023-01-19T15:11:12.862Z,97432.67
2023-01-19T15:14:02.879Z,97435.70
2023-01-19T15:16:52.978Z,97437.89
2023-01-19T15:20:01.960Z,97435.89
2023-01-19T15:23:10.432Z,97437.77
2023-01-19T15:26:18.681Z,97436.59
2023-01-19T15:29:39.089Z,97441.33
2023-01-19T15:32:50.692Z,97443.88
2023-01-19T15:35:59.386Z,97445.74
2023-01-19T15:38:49.875Z,97448.13
2023-01-19T15:42:04.326Z,97446.50
2023-01-19T15:45:14.118Z,97450.20
2023-01-19T15:48:22.294Z,97450.73
2023-01-19T15:51:34.121Z,97450.26
2023-01-19T15:54:42.423Z,97453.44
2023-01-19T15:57:44.258Z,97457.45
2023-01-19T16:00:52.594Z,97458.62
2023-01-19T16:03:59.655Z,97459.95
2023-01-19T16:07:07.949Z,97465.15
2023-01-19T16:10:14.162Z,97468.86
2023-01-19T16:13:23.009Z,97471.38
2023-01-19T16:16:12.900Z,97474.05
2023-01-19T16:19:22.205Z,97475.57
2023-01-19T16:22:31.043Z,97475.21
2023-01-19T16:25:40.816Z,97480.92
2023-01-19T16:28:49.840Z,97482.09
2023-01-19T16:32:00.584Z,97482.45
2023-01-19T16:35:09.428Z,97486.83
2023-01-19T16:38:18.326Z,97486.67
2023-01-19T16:41:26.575Z,97489.21
2023-01-19T16:44:36.386Z,97487.24
2023-01-19T16:47:45.936Z,97497.16
2023-01-19T16:50:54.160Z,97498.02
2023-01-19T16:53:55.796Z,97498.86
2023-01-19T16:57:04.703Z,97496.34
2023-01-19T16:59:53.020Z,97495.99
2023-01-19T17:03:02.503Z,97496.16
2023-01-19T17:06:10.743Z,97498.17
2023-01-19T17:09:19.406Z,97497.33
2023-01-19T17:12:15.125Z,97498.17
2023-01-19T17:15:03.793Z,97492.98
2023-01-19T17:17:55.343Z,97499.38
2023-01-19T17:21:03.726Z,97496.86
2023-01-19T17:24:13.203Z,97497.05
2023-01-19T17:27:22.779Z,97498.92
2023-01-19T17:30:31.872Z,97498.58
2023-01-19T17:33:41.603Z,97501.73
2023-01-19T17:36:52.101Z,97502.09
2023-01-19T17:40:00.754Z,97502.07
2023-01-19T17:43:09.788Z,97498.53
2023-01-19T17:46:18.805Z,97500.52
2023-01-19T17:49:27.090Z,97502.02
2023-01-19T17:52:20.154Z,97509.08
2023-01-19T17:55:28.891Z,97509.09
2023-01-19T17:58:29.447Z,97510.60
2023-01-19T18:01:34.092Z,97515.30
2023-01-19T18:04:37.000Z,97510.42
2023-01-19T18:07:25.095Z,97513.45
2023-01-19T18:10:35.760Z,97519.83
2023-01-19T18:13:45.111Z,97524.54
2023-01-19T18:16:47.216Z,97530.41
2023-01-19T18:19:56.800Z,97528.06
2023-01-19T18:23:05.114Z,97528.74
2023-01-19T18:26:19.910Z,97527.39
2023-01-19T18:29:09.023Z,97526.89
2023-01-19T18:32:18.058Z,97527.56
2023-01-19T18:35:27.412Z,97527.72
2023-01-19T18:38:35.550Z,97529.41
2023-01-19T18:41:44.192Z,97530.92
2023-01-19T18:44:53.879Z,97535.61
2023-01-19T18:47:55.652Z,97538.30
2023-01-19T18:51:03.958Z,97537.30
2023-01-19T18:54:06.995Z,97538.15
2023-01-19T18:57:08.858Z,97538.14
2023-01-19T19:00:17.597Z,97537.84
2023-01-19T19:03:26.968Z,97544.57
2023-01-19T19:06:29.981Z,97550.60
2023-01-19T19:09:38.149Z,97551.80
2023-01-19T19:12:47.031Z,97555.84
2023-01-19T19:15:58.455Z,97567.62
2023-01-19T19:19:07.573Z,97568.81
2023-01-19T19:22:17.145Z,97572.07
2023-01-19T19:25:26.022Z,97573.77
2023-01-19T19:28:04.083Z,97578.13
2023-01-19T19:31:12.698Z,97584.34
2023-01-19T19:34:21.885Z,97588.54
2023-01-19T19:37:30.928Z,97598.44
2023-01-19T19:40:40.514Z,97601.45
2023-01-19T19:43:48.733Z,97602.47
2023-01-19T19:46:58.066Z,97607.17
2023-01-19T19:50:06.540Z,97614.92
2023-01-19T19:53:15.052Z,97614.60
2023-01-19T19:56:23.722Z,97614.43
2023-01-19T19:59:33.253Z,97619.80
2023-01-19T20:02:41.819Z,97617.33
2023-01-19T20:05:50.997Z,97621.67
2023-01-19T20:09:00.078Z,97629.73
2023-01-19T20:12:11.285Z,97636.99
2023-01-19T20:15:20.562Z,97645.39
2023-01-19T20:18:29.888Z,97652.29
2023-01-19T20:21:44.484Z,97659.02
2023-01-19T20:24:56.802Z,97663.74
2023-01-19T20:28:06.494Z,97669.64
2023-01-19T20:31:15.694Z,97675.69
2023-01-19T20:34:15.044Z,97679.54
2023-01-19T20:37:24.427Z,97682.73
2023-01-19T20:40:33.281Z,97686.27
2023-01-19T20:43:21.849Z,97689.31
2023-01-19T20:46:30.137Z,97695.04
2023-01-19T20:49:30.203Z,97698.72
2023-01-19T20:52:39.567Z,97705.95
2023-01-19T20:55:48.991Z,97707.80
2023-01-19T20:58:46.231Z,97707.80
2023-01-19T21:01:38.980Z,97709.99
2023-01-19T21:04:32.954Z,97705.29
2023-01-19T21:07:41.675Z,97708.65
2023-01-19T21:10:50.594Z,97707.30
2023-01-19T21:13:59.026Z,97703.27
2023-01-19T21:17:07.587Z,97711.98
2023-01-19T21:20:16.584Z,97717.02
2023-01-19T21:23:25.582Z,97721.36
2023-01-19T21:26:33.960Z,97718.16
2023-01-19T21:29:43.912Z,97721.34
2023-01-19T21:32:53.279Z,97728.56
2023-01-19T21:36:01.757Z,97730.76
2023-01-19T21:39:10.300Z,97730.09
2023-01-19T21:42:19.640Z,97730.92
2023-01-19T21:45:28.183Z,97730.93
2023-01-19T21:48:37.485Z,97733.96
2023-01-19T21:51:39.146Z,97740.66
2023-01-19T21:54:48.559Z,97748.21
2023-01-19T21:57:57.489Z,97751.90
2023-01-19T22:01:07.549Z,97757.94
2023-01-19T22:04:15.892Z,97759.59
2023-01-19T22:07:25.532Z,97757.92
2023-01-19T22:10:34.696Z,97761.11
2023-01-19T22:13:36.560Z,97762.45
2023-01-19T22:16:46.061Z,97768.12
2023-01-19T22:19:43.933Z,97768.77
2023-01-19T22:22:50.693Z,97770.63
2023-01-19T22:25:32.455Z,97767.76
2023-01-19T22:28:40.641Z,97771.29
2023-01-19T22:31:53.019Z,97775.48
2023-01-19T22:34:48.446Z,97774.81
2023-01-19T22:37:57.511Z,97776.65
2023-01-19T22:41:06.649Z,97781.33
2023-01-19T22:44:15.129Z,97783.19
2023-01-19T22:47:05.959Z,97777.30
2023-01-19T22:50:15.154Z,97774.11
2023-01-19T22:53:23.745Z,97783.18
2023-01-19T22:56:38.520Z,97788.71
2023-01-19T22:59:47.276Z,97787.50
2023-01-19T23:02:56.571Z,97785.67
2023-01-19T23:05:56.451Z,97788.02
2023-01-19T23:08:57.368Z,97793.05
2023-01-19T23:12:08.738Z,97792.36
2023-01-19T23:15:10.267Z,97795.08
2023-01-19T23:18:19.991Z,97798.31
2023-01-19T23:21:28.405Z,97795.50
2023-01-19T23:24:30.781Z,97799.93
2023-01-19T23:27:38.941Z,97795.81
2023-01-19T23:30:29.519Z,97801.71
2023-01-19T23:33:29.956Z,97803.11
2023-01-19T23:36:39.398Z,97809.19
2023-01-19T23:39:46.856Z,97820.80
2023-01-19T23:42:56.044Z,97832.05
2023-01-19T23:46:05.583Z,97837.09
2023-01-19T23:49:03.816Z,97840.45
2023-01-19T23:52:11.997Z,97838.27
2023-01-19T23:55:20.250Z,97839.96
2023-01-19T23:58:28.726Z,97840.98
